Time;durP1;ratioP1;P1;durP2;ratioP2;P2;SDS_P1;SDS_P2;PMS_P1;PMS_P2;Temp;Humidity;BMP_temperature;BMP_pressure;BME280_temperature;BME280_humidity;BME280_pressure;Samples;Min_cycle;Max_cycle;Signal;HPM_P1;HPM_P2
2023/03/18 00:01:13;;;;;;;4.68;3.42;;;3.20;99.90;;;;;;4977259;28;20392;-33
2023/03/18 00:03:39;;;;;;;6.72;3.85;;;3.20;99.90;;;;;;4964739;28;20030;-33
2023/03/18 00:06:11;;;;;;;5.47;3.60;;;3.40;99.90;;;;;;4961096;28;20396;-33
2023/03/18 00:08:38;;;;;;;7.50;4.53;;;3.50;99.90;;;;;;4950287;28;20031;-34
2023/03/18 00:11:04;;;;;;;8.27;4.53;;;3.70;99.90;;;;;;4948671;28;20130;-33
2023/03/18 00:13:33;;;;;;;9.30;5.00;;;3.70;99.90;;;;;;4945812;28;20041;-34
2023/03/18 00:16:00;;;;;;;10.88;4.57;;;3.80;99.90;;;;;;4963464;28;20027;-32
2023/03/18 00:18:26;;;;;;;6.05;4.68;;;3.90;99.90;;;;;;4967717;28;20125;-31
2023/03/18 00:20:52;;;;;;;11.60;4.57;;;3.90;99.90;;;;;;4972509;28;20570;-36
2023/03/18 00:23:19;;;;;;;8.55;5.28;;;4.00;99.90;;;;;;4966130;28;20066;-33
2023/03/18 00:25:47;;;;;;;6.05;5.00;;;4.00;99.90;;;;;;4970902;28;20121;-35
2023/03/18 00:28:13;;;;;;;9.23;4.45;;;4.00;99.90;;;;;;4960435;28;20200;-36
2023/03/18 00:30:40;;;;;;;8.50;4.80;;;4.00;99.90;;;;;;4967259;28;20027;-35
2023/03/18 00:33:10;;;;;;;6.93;4.90;;;4.00;99.90;;;;;;4957099;28;20118;-33
2023/03/18 00:35:36;;;;;;;6.28;4.80;;;4.00;99.90;;;;;;4958085;28;20027;-31
2023/03/18 00:38:02;;;;;;;8.30;5.13;;;3.80;99.90;;;;;;4945492;28;20162;-32
2023/03/18 00:40:41;;;;;;;7.28;4.97;;;3.90;99.90;;;;;;4948884;28;20127;-33
2023/03/18 00:43:08;;;;;;;8.70;4.55;;;3.90;99.90;;;;;;4945311;28;20124;-34
2023/03/18 00:45:39;;;;;;;5.55;4.32;;;3.90;99.90;;;;;;4951171;28;20067;-31
2023/03/18 00:48:06;;;;;;;10.02;5.32;;;3.90;99.90;;;;;;4949799;28;20141;-34
2023/03/18 00:50:35;;;;;;;6.57;4.30;;;3.90;99.90;;;;;;4949451;28;20053;-31
2023/03/18 00:53:01;;;;;;;6.70;4.13;;;3.90;99.90;;;;;;4947309;28;20038;-34
2023/03/18 00:55:27;;;;;;;7.07;4.07;;;3.90;99.90;;;;;;4950387;28;20035;-33
2023/03/18 00:57:53;;;;;;;9.10;4.97;;;3.90;99.90;;;;;;4963181;28;20030;-34
2023/03/18 01:00:19;;;;;;;7.68;4.90;;;3.90;99.90;;;;;;4965494;28;20039;-34
2023/03/18 01:02:47;;;;;;;6.30;4.90;;;3.80;99.90;;;;;;4967060;28;20054;-34
2023/03/18 01:05:13;;;;;;;17.98;5.20;;;3.80;99.90;;;;;;4962324;28;20409;-32
2023/03/18 01:07:40;;;;;;;6.28;4.55;;;3.80;99.90;;;;;;4967475;28;20030;-35
2023/03/18 01:10:08;;;;;;;7.53;4.22;;;3.80;99.90;;;;;;4960134;28;20134;-35
2023/03/18 01:12:33;;;;;;;9.37;4.77;;;3.80;99.90;;;;;;4966203;28;20026;-34
2023/03/18 01:14:59;;;;;;;7.38;4.28;;;3.80;99.90;;;;;;4948538;28;20023;-31
2023/03/18 01:17:25;;;;;;;5.13;4.30;;;3.70;99.90;;;;;;4949645;28;20414;-32
2023/03/18 01:19:51;;;;;;;9.02;4.50;;;3.70;99.90;;;;;;4964902;28;20043;-33
2023/03/18 01:22:17;;;;;;;7.60;5.13;;;3.50;99.90;;;;;;4947983;28;20389;-35
2023/03/18 01:24:43;;;;;;;7.40;4.53;;;3.50;99.90;;;;;;4948611;28;20027;-33
2023/03/18 01:27:12;;;;;;;9.80;5.15;;;3.50;99.90;;;;;;4950264;28;20035;-34
2023/03/18 01:29:39;;;;;;;9.43;5.55;;;3.50;99.90;;;;;;4947714;28;20034;-33
2023/03/18 01:32:05;;;;;;;5.15;4.07;;;3.60;99.90;;;;;;4948230;28;20039;-35
2023/03/18 01:34:31;;;;;;;8.15;4.93;;;3.50;99.90;;;;;;4951452;28;20031;-32
2023/03/18 01:36:57;;;;;;;4.57;3.45;;;3.40;99.90;;;;;;4949813;28;20045;-35
2023/03/18 01:39:23;;;;;;;7.07;3.90;;;3.50;99.90;;;;;;4949374;28;20035;-34
2023/03/18 01:41:50;;;;;;;10.25;4.63;;;3.50;99.90;;;;;;4951097;28;20488;-33
2023/03/18 01:44:19;;;;;;;4.72;3.30;;;3.60;99.90;;;;;;4948170;28;20030;-33
2023/03/18 01:46:46;;;;;;;6.90;3.85;;;3.50;99.90;;;;;;4945206;28;20098;-33
2023/03/18 01:49:19;;;;;;;9.65;4.07;;;3.40;99.90;;;;;;4974191;28;20043;-31
2023/03/18 01:52:11;;;;;;;7.13;3.53;;;3.40;99.90;;;;;;4945401;28;20055;-33
2023/03/18 01:54:45;;;;;;;6.00;3.20;;;3.40;99.90;;;;;;4950214;28;20042;-34
2023/03/18 01:57:11;;;;;;;6.28;3.90;;;3.30;99.90;;;;;;4945482;28;20062;-35
2023/03/18 01:59:40;;;;;;;5.00;3.50;;;3.00;99.90;;;;;;4964359;28;20023;-34
2023/03/18 02:02:11;;;;;;;7.18;4.47;;;2.70;99.90;;;;;;4949207;28;20063;-30
2023/03/18 02:04:44;;;;;;;6.13;3.22;;;2.80;99.90;;;;;;4947329;28;20544;-30
2023/03/18 02:07:25;;;;;;;5.57;3.42;;;2.80;99.90;;;;;;4945919;28;20030;-31
2023/03/18 02:09:52;;;;;;;5.00;3.13;;;2.80;99.90;;;;;;4944986;28;20366;-32
2023/03/18 02:12:24;;;;;;;8.00;4.07;;;2.90;99.90;;;;;;4952681;28;20330;-30
2023/03/18 02:14:52;;;;;;;5.47;3.67;;;3.00;99.90;;;;;;4961428;28;20038;-32
2023/03/18 02:17:21;;;;;;;7.82;3.78;;;3.00;99.90;;;;;;4960380;28;20030;-31
2023/03/18 02:20:01;;;;;;;8.23;3.65;;;3.10;99.90;;;;;;4961374;28;20106;-34
2023/03/18 02:22:38;;;;;;;8.43;4.18;;;3.10;99.90;;;;;;4964805;28;20031;-33
2023/03/18 02:25:10;;;;;;;7.78;4.20;;;3.10;99.90;;;;;;4966139;28;20370;-31
2023/03/18 02:27:44;;;;;;;4.07;3.10;;;3.10;99.90;;;;;;4965028;28;20025;-31
2023/03/18 02:30:15;;;;;;;7.10;4.32;;;3.10;99.90;;;;;;4958269;28;20121;-33
2023/03/18 02:32:41;;;;;;;4.43;3.55;;;3.00;99.90;;;;;;4960801;28;20045;-32
2023/03/18 02:35:09;;;;;;;10.35;3.92;;;2.90;99.90;;;;;;4963960;28;20265;-32
2023/03/18 02:37:35;;;;;;;4.90;3.40;;;2.90;99.90;;;;;;4953871;28;20065;-30
2023/03/18 02:40:23;;;;;;;7.07;3.40;;;2.70;99.90;;;;;;4965205;28;20077;-32
2023/03/18 02:42:49;;;;;;;4.35;3.10;;;2.60;99.90;;;;;;4966331;28;20062;-32
2023/03/18 02:45:37;;;;;;;5.47;3.33;;;2.70;99.90;;;;;;4969920;28;20515;-30
2023/03/18 02:48:05;;;;;;;6.00;3.63;;;2.80;99.90;;;;;;4956274;28;20027;-33
2023/03/18 02:50:31;;;;;;;4.72;2.67;;;2.60;99.90;;;;;;4956103;28;20059;-31
2023/03/18 02:52:58;;;;;;;4.88;3.28;;;2.50;99.90;;;;;;4967208;28;20045;-32
2023/03/18 02:55:24;;;;;;;6.65;3.72;;;2.60;99.90;;;;;;4959558;28;20016;-31
2023/03/18 02:57:49;;;;;;;9.55;4.68;;;2.70;99.90;;;;;;4963062;28;20083;-32
2023/03/18 03:00:15;;;;;;;2.97;2.72;;;2.80;99.90;;;;;;4969639;28;20497;-36
2023/03/18 03:02:44;;;;;;;5.03;4.07;;;2.80;99.90;;;;;;4966266;28;20042;-32
2023/03/18 03:05:11;;;;;;;8.35;3.45;;;2.80;99.90;;;;;;4962183;28;20561;-34
2023/03/18 03:07:36;;;;;;;5.18;4.03;;;2.80;99.90;;;;;;4967342;28;20034;-32
2023/03/18 03:10:04;;;;;;;4.00;3.28;;;2.90;99.90;;;;;;4962183;28;20030;-31
2023/03/18 03:12:30;;;;;;;7.03;4.17;;;2.90;99.90;;;;;;4961213;28;20517;-33
2023/03/18 03:14:55;;;;;;;5.45;3.92;;;2.90;99.90;;;;;;4960313;28;20277;-32
2023/03/18 03:17:21;;;;;;;8.18;3.90;;;2.90;99.90;;;;;;4963057;28;20019;-31
2023/03/18 03:19:47;;;;;;;9.75;3.50;;;2.90;99.90;;;;;;4968808;28;20058;-31
2023/03/18 03:22:12;;;;;;;8.57;4.03;;;2.90;99.90;;;;;;4961470;28;20043;-33
2023/03/18 03:24:38;;;;;;;5.53;3.60;;;2.90;99.90;;;;;;4988104;28;20042;-31
2023/03/18 03:27:04;;;;;;;5.47;3.65;;;2.90;99.90;;;;;;4957696;28;20479;-30
2023/03/18 03:29:30;;;;;;;6.85;4.05;;;2.90;99.90;;;;;;4961702;28;20500;-30
2023/03/18 03:31:56;;;;;;;7.32;3.10;;;2.80;99.90;;;;;;4964750;28;20054;-30
2023/03/18 03:34:21;;;;;;;5.45;3.28;;;2.70;99.90;;;;;;4960067;28;20034;-30
2023/03/18 03:36:47;;;;;;;7.55;4.18;;;2.70;99.90;;;;;;4964336;28;20038;-31
2023/03/18 03:39:13;;;;;;;5.25;2.95;;;2.60;99.90;;;;;;4962844;28;20492;-32
2023/03/18 03:41:39;;;;;;;3.83;2.97;;;2.50;99.90;;;;;;4970001;28;20026;-35
2023/03/18 03:44:05;;;;;;;3.90;3.30;;;2.40;99.90;;;;;;4966473;28;20484;-32
2023/03/18 03:46:31;;;;;;;5.05;3.35;;;2.20;99.90;;;;;;4983157;28;20033;-32
2023/03/18 03:48:56;;;;;;;5.63;4.20;;;2.20;99.90;;;;;;4972053;28;20031;-32
2023/03/18 03:51:22;;;;;;;3.70;3.08;;;2.30;99.90;;;;;;4960760;28;20051;-30
2023/03/18 03:53:49;;;;;;;6.05;3.63;;;2.50;99.90;;;;;;4968029;28;20649;-33
2023/03/18 03:56:16;;;;;;;5.22;3.17;;;2.60;99.90;;;;;;4970667;28;20030;-35
2023/03/18 03:58:41;;;;;;;5.15;3.28;;;2.50;99.90;;;;;;4976449;28;20497;-31
2023/03/18 04:01:07;;;;;;;4.65;3.50;;;2.40;99.90;;;;;;4960357;28;20042;-31
2023/03/18 04:03:33;;;;;;;3.40;2.40;;;2.20;99.90;;;;;;4963457;28;20508;-31
2023/03/18 04:05:59;;;;;;;3.35;2.90;;;1.90;99.90;;;;;;4970411;28;20035;-31
2023/03/18 04:08:25;;;;;;;6.72;4.07;;;2.00;99.90;;;;;;4969325;28;20504;-30
2023/03/18 04:10:52;;;;;;;7.93;3.53;;;2.00;99.90;;;;;;4962848;28;20031;-30
2023/03/18 04:13:17;;;;;;;4.93;3.08;;;2.00;99.90;;;;;;4963976;28;20567;-33
2023/03/18 04:15:43;;;;;;;7.28;3.53;;;2.00;99.90;;;;;;4975208;28;20028;-33
2023/03/18 04:18:09;;;;;;;6.03;4.20;;;2.20;99.90;;;;;;4964173;28;20049;-32
2023/03/18 04:20:38;;;;;;;8.15;3.75;;;2.20;99.90;;;;;;4965250;28;20027;-32
2023/03/18 04:23:04;;;;;;;4.82;3.28;;;2.30;99.90;;;;;;4960135;28;20027;-34
2023/03/18 04:25:30;;;;;;;5.22;3.00;;;2.20;99.90;;;;;;4967657;28;20031;-34
2023/03/18 04:27:56;;;;;;;7.80;3.80;;;2.20;99.90;;;;;;4965171;28;20385;-32
2023/03/18 04:30:24;;;;;;;7.38;4.38;;;2.20;99.90;;;;;;4971462;28;20043;-33
2023/03/18 04:32:50;;;;;;;6.70;4.35;;;2.30;99.90;;;;;;4981756;28;20058;-35
2023/03/18 04:35:16;;;;;;;8.13;3.88;;;2.30;99.90;;;;;;4966943;28;20110;-31
2023/03/18 04:37:43;;;;;;;8.77;3.55;;;2.30;99.90;;;;;;4966299;28;20042;-33
2023/03/18 04:40:10;;;;;;;6.97;4.00;;;2.40;99.90;;;;;;4967628;28;20030;-31
2023/03/18 04:42:36;;;;;;;7.55;4.25;;;2.40;99.90;;;;;;4965078;28;20544;-33
2023/03/18 04:45:04;;;;;;;6.43;3.70;;;2.50;99.90;;;;;;4965942;28;20392;-31
2023/03/18 04:47:31;;;;;;;5.15;3.38;;;2.50;99.90;;;;;;4969082;28;20026;-31
2023/03/18 04:49:57;;;;;;;3.53;3.22;;;2.40;99.90;;;;;;4966677;28;21245;-35
2023/03/18 04:52:23;;;;;;;4.57;3.33;;;2.20;99.90;;;;;;4965989;28;20480;-33
2023/03/18 04:54:49;;;;;;;3.83;3.38;;;2.20;99.90;;;;;;4968851;28;20031;-30
2023/03/18 04:57:15;;;;;;;5.55;3.80;;;2.20;99.90;;;;;;4966970;28;20031;-33
2023/03/18 04:59:41;;;;;;;4.63;3.40;;;2.30;99.90;;;;;;4967500;28;21067;-29
2023/03/18 05:02:07;;;;;;;5.55;4.20;;;2.30;99.90;;;;;;4965052;28;20031;-32
2023/03/18 05:04:33;;;;;;;7.38;3.53;;;2.30;99.90;;;;;;4967165;28;20030;-32
2023/03/18 05:06:59;;;;;;;4.57;3.42;;;2.30;99.90;;;;;;4965398;28;20048;-33
2023/03/18 05:09:24;;;;;;;5.63;3.75;;;2.40;99.90;;;;;;4968648;28;20026;-35
2023/03/18 05:11:50;;;;;;;5.68;2.92;;;2.30;99.90;;;;;;4962519;28;20063;-30
2023/03/18 05:14:16;;;;;;;5.40;3.72;;;2.30;99.90;;;;;;4966492;28;20035;-35
2023/03/18 05:16:42;;;;;;;3.88;3.38;;;2.30;99.90;;;;;;4965894;28;20030;-30
2023/03/18 05:19:08;;;;;;;6.57;3.83;;;2.30;99.90;;;;;;4967278;28;20035;-30
2023/03/18 05:21:35;;;;;;;5.93;4.28;;;2.20;99.90;;;;;;4965889;28;20042;-32
2023/03/18 05:24:01;;;;;;;4.47;3.15;;;2.10;99.90;;;;;;4968948;28;20051;-31
2023/03/18 05:26:27;;;;;;;8.40;4.82;;;2.10;99.90;;;;;;4976179;28;20113;-31
2023/03/18 05:28:52;;;;;;;10.77;4.32;;;2.10;99.90;;;;;;4980564;28;20042;-31
2023/03/18 05:31:19;;;;;;;8.32;4.57;;;2.20;99.90;;;;;;4985424;28;20407;-30
2023/03/18 05:33:45;;;;;;;7.88;4.75;;;2.30;99.90;;;;;;4979952;28;20508;-33
2023/03/18 05:36:11;;;;;;;8.65;4.75;;;2.40;99.90;;;;;;4979403;28;20041;-33
2023/03/18 05:38:36;;;;;;;5.80;4.07;;;2.40;99.90;;;;;;4985890;28;20110;-31
2023/03/18 05:41:03;;;;;;;8.18;4.35;;;2.40;99.90;;;;;;4979759;28;20130;-36
2023/03/18 05:43:28;;;;;;;6.05;3.97;;;2.50;99.90;;;;;;4983129;28;20034;-32
2023/03/18 05:45:54;;;;;;;6.55;3.63;;;2.50;99.90;;;;;;4977929;28;20554;-32
2023/03/18 05:48:21;;;;;;;6.18;3.80;;;2.50;99.90;;;;;;4985882;28;20022;-32
2023/03/18 05:50:46;;;;;;;6.32;3.53;;;2.50;99.90;;;;;;4991890;28;20534;-32
2023/03/18 05:53:15;;;;;;;4.55;3.28;;;2.40;99.90;;;;;;4966968;28;20030;-31
2023/03/18 05:55:41;;;;;;;5.55;4.13;;;2.40;99.90;;;;;;4976146;28;20027;-34
2023/03/18 05:58:07;;;;;;;6.63;4.88;;;2.40;99.90;;;;;;4979512;28;20045;-33
2023/03/18 06:00:33;;;;;;;6.55;4.20;;;2.50;99.90;;;;;;4982824;28;20506;-31
2023/03/18 06:03:00;;;;;;;6.43;3.80;;;2.50;99.90;;;;;;4988128;28;20105;-32
2023/03/18 06:05:27;;;;;;;7.88;3.67;;;2.50;99.90;;;;;;4983593;28;20081;-31
2023/03/18 06:07:53;;;;;;;5.78;3.90;;;2.60;99.90;;;;;;4988506;28;20065;-33
2023/03/18 06:10:21;;;;;;;9.32;4.43;;;2.60;99.90;;;;;;4988896;28;20141;-34
2023/03/18 06:12:48;;;;;;;5.82;4.13;;;2.60;99.90;;;;;;4981155;28;20119;-31
2023/03/18 06:15:13;;;;;;;4.50;2.97;;;2.70;99.90;;;;;;4983344;28;20058;-33
2023/03/18 06:17:39;;;;;;;8.35;4.35;;;2.70;99.90;;;;;;4976888;28;20113;-32
2023/03/18 06:20:08;;;;;;;9.45;5.03;;;2.70;99.90;;;;;;4978672;28;20037;-31
2023/03/18 06:22:34;;;;;;;;;;;2.70;99.90;;;;;;4978550;28;20115;-33
2023/03/18 06:25:00;;;;;;;4.70;4.25;;;2.60;99.90;;;;;;4982606;28;19950;-30
2023/03/18 06:27:25;;;;;;;9.38;3.97;;;2.70;99.90;;;;;;4984384;28;20026;-32
2023/03/18 06:29:51;;;;;;;6.82;3.75;;;2.80;99.90;;;;;;4986681;28;20400;-30
2023/03/18 06:32:17;;;;;;;5.00;3.67;;;2.80;99.90;;;;;;4981039;28;20101;-35
2023/03/18 06:34:43;;;;;;;7.78;4.53;;;2.90;99.90;;;;;;4986365;28;20034;-36
2023/03/18 06:37:09;;;;;;;4.75;3.83;;;2.90;99.90;;;;;;4981756;28;20499;-33
2023/03/18 06:39:35;;;;;;;7.93;4.18;;;2.90;99.90;;;;;;4979603;28;20027;-31
2023/03/18 06:42:01;;;;;;;13.63;4.32;;;3.00;99.90;;;;;;4985014;28;20377;-31
2023/03/18 06:44:27;;;;;;;6.18;4.00;;;3.00;99.90;;;;;;4982948;28;20027;-32
2023/03/18 06:46:52;;;;;;;7.18;4.15;;;3.10;99.90;;;;;;4979974;28;20559;-34
2023/03/18 06:49:18;;;;;;;9.20;3.70;;;3.10;99.90;;;;;;4987042;28;20416;-34
2023/03/18 06:51:44;;;;;;;4.78;4.15;;;3.30;99.90;;;;;;4984691;28;20050;-35
2023/03/18 06:54:10;;;;;;;4.57;3.55;;;3.30;99.90;;;;;;4989508;28;20460;-33
2023/03/18 06:56:40;;;;;;;4.35;3.47;;;3.40;99.90;;;;;;4979873;28;20027;-30
2023/03/18 06:59:08;;;;;;;4.68;4.13;;;3.40;99.90;;;;;;4983657;28;20485;-32
2023/03/18 07:01:34;;;;;;;6.35;3.92;;;3.60;99.90;;;;;;4978382;28;20576;-30
2023/03/18 07:04:01;;;;;;;7.75;3.50;;;3.60;99.90;;;;;;4987159;28;20157;-32
2023/03/18 07:06:28;;;;;;;9.07;3.35;;;3.70;99.90;;;;;;4996219;28;20027;-30
2023/03/18 07:08:54;;;;;;;5.65;4.05;;;3.80;99.90;;;;;;4981306;28;20117;-31
2023/03/18 07:11:20;;;;;;;7.05;3.78;;;3.90;99.90;;;;;;4987137;28;20424;-32
2023/03/18 07:13:46;;;;;;;8.93;4.28;;;4.00;99.90;;;;;;4979774;28;20033;-33
2023/03/18 07:16:12;;;;;;;6.35;3.47;;;4.00;99.90;;;;;;4987433;28;20443;-31
2023/03/18 07:18:38;;;;;;;4.13;3.20;;;4.10;99.90;;;;;;4983394;28;20423;-34
2023/03/18 07:21:04;;;;;;;8.07;3.75;;;4.20;99.90;;;;;;4983196;28;20627;-32
2023/03/18 07:23:30;;;;;;;5.80;3.92;;;4.30;99.90;;;;;;4980474;28;20373;-33
2023/03/18 07:25:56;;;;;;;5.30;4.30;;;4.30;99.90;;;;;;4985683;28;20038;-35
2023/03/18 07:28:22;;;;;;;4.72;3.63;;;4.50;99.90;;;;;;4981455;28;20029;-33
2023/03/18 07:30:48;;;;;;;6.47;4.10;;;4.60;99.90;;;;;;4981129;28;20039;-32
2023/03/18 07:33:14;;;;;;;4.82;3.65;;;4.70;99.90;;;;;;4986347;28;20393;-32
2023/03/18 07:35:40;;;;;;;4.82;3.25;;;4.80;99.90;;;;;;4988729;28;20031;-35
2023/03/18 07:38:09;;;;;;;7.90;4.50;;;4.90;99.90;;;;;;4988150;28;20042;-33
2023/03/18 07:40:36;;;;;;;9.40;4.03;;;5.00;99.90;;;;;;4985870;28;20030;-32
2023/03/18 07:43:02;;;;;;;5.63;3.95;;;5.10;99.90;;;;;;4984086;28;20038;-32
2023/03/18 07:45:28;;;;;;;8.85;4.40;;;5.30;99.90;;;;;;4975806;28;20022;-32
2023/03/18 07:47:54;;;;;;;7.40;4.90;;;5.40;99.90;;;;;;4988102;28;20443;-31
2023/03/18 07:50:20;;;;;;;8.13;4.43;;;5.50;99.90;;;;;;4980751;28;20035;-33
2023/03/18 07:52:46;;;;;;;10.00;4.43;;;5.60;99.90;;;;;;4989216;28;20463;-33
2023/03/18 07:55:12;;;;;;;4.10;3.58;;;5.70;99.90;;;;;;4980013;28;20113;-33
2023/03/18 07:57:38;;;;;;;7.20;5.00;;;5.80;99.90;;;;;;4987539;28;20025;-34
2023/03/18 08:00:05;;;;;;;5.53;3.47;;;5.90;99.90;;;;;;4992652;28;20085;-34
2023/03/18 08:02:31;;;;;;;6.63;4.00;;;6.10;99.90;;;;;;4986350;28;20037;-34
2023/03/18 08:04:57;;;;;;;7.13;4.50;;;6.20;99.90;;;;;;4986072;28;20436;-32
2023/03/18 08:07:23;;;;;;;7.93;3.40;;;6.40;99.90;;;;;;4984275;28;20491;-31
2023/03/18 08:09:49;;;;;;;5.85;3.42;;;6.50;99.90;;;;;;4991329;28;20141;-30
2023/03/18 08:12:15;;;;;;;4.38;3.35;;;6.70;99.90;;;;;;4979573;28;20064;-34
2023/03/18 08:14:41;;;;;;;3.80;3.13;;;6.90;99.90;;;;;;4985073;28;20027;-34
2023/03/18 08:17:07;;;;;;;4.63;3.05;;;7.20;99.90;;;;;;5014274;28;20032;-33
2023/03/18 08:19:33;;;;;;;3.58;3.17;;;7.40;99.90;;;;;;4988794;28;20030;-30
2023/03/18 08:21:59;;;;;;;9.90;8.32;;;7.70;99.90;;;;;;4993002;28;20031;-32
2023/03/18 08:24:25;;;;;;;5.63;3.55;;;8.00;99.90;;;;;;4985922;28;20101;-31
2023/03/18 08:26:51;;;;;;;4.55;3.50;;;8.40;99.90;;;;;;4987848;28;20038;-33
2023/03/18 08:29:16;;;;;;;6.38;3.55;;;8.70;99.90;;;;;;4974087;28;20721;-34
2023/03/18 08:31:42;;;;;;;6.53;3.63;;;8.90;99.90;;;;;;4983315;28;20090;-33
2023/03/18 08:34:08;;;;;;;4.15;3.10;;;9.20;99.90;;;;;;4987016;28;20041;-30
2023/03/18 08:36:33;;;;;;;2.97;2.67;;;9.30;99.90;;;;;;4983366;28;20038;-31
2023/03/18 08:38:59;;;;;;;3.60;2.60;;;9.50;99.90;;;;;;4978713;28;20030;-30
2023/03/18 08:41:26;;;;;;;8.07;3.65;;;9.80;99.90;;;;;;4985261;28;20062;-32
2023/03/18 08:43:52;;;;;;;5.15;2.67;;;10.00;99.90;;;;;;4978035;28;20093;-33
2023/03/18 08:46:18;;;;;;;3.70;2.60;;;10.30;99.90;;;;;;4985706;28;20037;-35
2023/03/18 08:48:43;;;;;;;7.20;2.08;;;10.50;99.90;;;;;;4984456;28;20424;-33
2023/03/18 08:51:09;;;;;;;5.32;2.15;;;10.60;99.90;;;;;;4988313;28;20030;-31
2023/03/18 08:53:36;;;;;;;4.10;2.30;;;10.70;99.90;;;;;;4988413;28;20085;-31
2023/03/18 08:56:04;;;;;;;3.92;2.20;;;10.90;99.90;;;;;;4986754;28;20042;-31
2023/03/18 08:58:31;;;;;;;6.55;2.50;;;11.20;99.90;;;;;;4987103;28;20034;-30
2023/03/18 09:00:57;;;;;;;2.30;2.05;;;11.50;99.90;;;;;;4983536;28;20035;-33
2023/03/18 09:03:23;;;;;;;6.57;2.10;;;11.80;99.90;;;;;;4982663;28;20084;-33
2023/03/18 09:05:49;;;;;;;5.43;2.10;;;12.00;99.70;;;;;;4982175;28;20039;-30
2023/03/18 09:08:15;;;;;;;5.30;2.10;;;12.20;99.90;;;;;;4985821;28;20030;-29
2023/03/18 09:10:43;;;;;;;2.67;1.90;;;12.30;94.80;;;;;;4979993;28;20034;-32
2023/03/18 09:13:08;;;;;;;2.75;1.92;;;12.40;98.10;;;;;;4979352;28;20132;-32
2023/03/18 09:15:34;;;;;;;3.85;2.05;;;12.30;94.40;;;;;;4981275;28;20066;-30
2023/03/18 09:18:00;;;;;;;2.92;2.08;;;12.40;97.10;;;;;;4981934;28;20026;-30
2023/03/18 09:20:27;;;;;;;4.85;2.20;;;12.70;98.00;;;;;;5012858;28;20039;-31
2023/03/18 09:22:52;;;;;;;2.80;2.20;;;12.80;95.10;;;;;;4980331;28;20137;-31
2023/03/18 09:25:18;;;;;;;3.30;2.03;;;12.90;96.50;;;;;;4976795;28;20039;-32
2023/03/18 09:27:44;;;;;;;4.30;2.17;;;13.00;88.50;;;;;;4983545;28;20034;-30
2023/03/18 09:30:11;;;;;;;2.60;1.98;;;13.20;92.90;;;;;;4985058;28;20491;-30
2023/03/18 09:32:37;;;;;;;3.80;2.22;;;13.40;93.20;;;;;;4977921;28;20125;-32
2023/03/18 09:35:04;;;;;;;3.90;2.20;;;13.50;93.80;;;;;;4980208;28;20023;-30
2023/03/18 09:37:29;;;;;;;3.60;2.50;;;13.80;91.50;;;;;;4986852;28;20026;-29
2023/03/18 09:39:55;;;;;;;3.72;2.67;;;14.00;88.20;;;;;;4998066;28;20109;-34
2023/03/18 09:42:30;;;;;;;5.47;2.58;;;14.00;82.90;;;;;;4992937;28;20495;-30
2023/03/18 09:44:59;;;;;;;3.83;2.30;;;14.30;84.40;;;;;;4986773;28;20053;-30
2023/03/18 09:48:03;;;;;;;4.72;2.38;;;14.40;74.50;;;;;;4981228;28;20027;-30
2023/03/18 09:50:28;;;;;;;4.32;2.53;;;14.20;75.40;;;;;;5000950;28;20057;-30
2023/03/18 09:53:16;;;;;;;4.43;2.17;;;14.00;79.20;;;;;;4987107;28;20038;-29
2023/03/18 09:55:52;;;;;;;4.72;2.45;;;14.40;76.10;;;;;;4979754;28;20022;-29
2023/03/18 09:58:45;;;;;;;3.00;2.33;;;14.70;75.10;;;;;;4981492;28;20046;-29
2023/03/18 10:01:12;;;;;;;6.05;2.35;;;15.00;73.40;;;;;;5016942;28;20334;-30
2023/03/18 10:03:49;;;;;;;4.65;2.22;;;14.90;73.50;;;;;;4978568;28;20041;-30
2023/03/18 10:06:16;;;;;;;5.53;2.45;;;15.00;70.20;;;;;;4984434;28;20096;-29
2023/03/18 10:09:03;;;;;;;3.88;2.05;;;15.00;67.80;;;;;;4983169;28;20077;-28
2023/03/18 10:11:43;;;;;;;3.67;2.63;;;15.20;65.90;;;;;;4984870;28;20391;-31
2023/03/18 10:14:46;;;;;;;5.15;2.50;;;15.40;66.80;;;;;;4976624;28;20034;-30
2023/03/18 10:17:29;;;;;;;4.95;2.40;;;15.30;64.20;;;;;;4988122;28;20121;-30
2023/03/18 10:19:59;;;;;;;5.22;2.10;;;15.30;61.80;;;;;;4976903;28;20072;-30
2023/03/18 10:22:51;;;;;;;5.47;2.40;;;15.30;64.00;;;;;;4983481;28;20477;-29
2023/03/18 10:25:26;;;;;;;5.57;2.63;;;15.30;62.00;;;;;;4981193;28;20510;-31
2023/03/18 10:28:04;;;;;;;4.63;2.60;;;15.40;60.70;;;;;;4982377;28;20521;-31
2023/03/18 10:30:51;;;;;;;7.47;2.53;;;15.60;62.60;;;;;;4977991;28;20031;-30
2023/03/18 10:33:30;;;;;;;4.22;2.13;;;15.60;58.80;;;;;;4993970;28;20380;-29
2023/03/18 10:36:08;;;;;;;4.82;2.40;;;15.40;59.30;;;;;;4971751;28;20038;-30
2023/03/18 10:38:38;;;;;;;5.03;2.30;;;15.50;60.30;;;;;;4984522;28;20038;-28
2023/03/18 10:41:15;;;;;;;4.65;2.65;;;15.60;57.50;;;;;;4979519;28;20208;-29
2023/03/18 10:43:41;;;;;;;4.65;2.58;;;15.80;59.20;;;;;;4978626;28;20038;-32
2023/03/18 10:46:13;;;;;;;3.08;2.00;;;16.00;59.10;;;;;;4975713;28;20037;-29
2023/03/18 10:48:41;;;;;;;3.92;2.30;;;16.10;58.40;;;;;;4976498;28;20034;-28
2023/03/18 10:51:18;;;;;;;4.65;2.35;;;16.30;56.60;;;;;;4982204;28;20034;-30
2023/03/18 10:53:53;;;;;;;6.35;2.22;;;16.10;54.80;;;;;;4981550;28;20499;-28
2023/03/18 10:56:19;;;;;;;4.53;2.30;;;16.30;54.30;;;;;;4985886;28;20023;-30
2023/03/18 10:58:45;;;;;;;4.35;2.40;;;16.20;52.10;;;;;;4981836;28;20027;-29
2023/03/18 11:01:15;;;;;;;4.72;2.47;;;16.50;55.80;;;;;;4975116;28;20037;-28
2023/03/18 11:04:05;;;;;;;4.85;2.50;;;16.60;58.10;;;;;;4983065;28;20031;-31
2023/03/18 11:06:56;;;;;;;6.00;3.00;;;16.60;53.80;;;;;;4977384;28;20493;-28
2023/03/18 11:09:30;;;;;;;5.47;2.75;;;16.40;53.20;;;;;;4984706;28;20038;-29
2023/03/18 11:12:02;;;;;;;5.13;2.53;;;16.80;55.70;;;;;;4978288;28;20041;-30
2023/03/18 11:14:31;;;;;;;9.30;2.40;;;16.80;53.30;;;;;;4978992;28;20034;-30
2023/03/18 11:17:21;;;;;;;6.40;2.50;;;16.70;53.80;;;;;;4972410;28;20033;-29
2023/03/18 11:19:49;;;;;;;5.35;2.20;;;16.50;51.30;;;;;;4968314;28;20039;-29
2023/03/18 11:22:19;;;;;;;;;;;16.70;53.50;;;;;;4965793;28;20035;-30
2023/03/18 11:24:45;;;;;;;6.50;3.63;;;16.60;52.90;;;;;;5009465;28;19917;-30
2023/03/18 11:27:16;;;;;;;17.40;10.30;;;16.50;54.50;;;;;;4979627;28;20053;-29
2023/03/18 11:29:48;;;;;;;5.95;2.97;;;16.50;54.00;;;;;;4977808;28;20023;-29
2023/03/18 11:32:33;;;;;;;139.68;69.78;;;16.70;53.60;;;;;;4979089;28;20444;-29
2023/03/18 11:35:04;;;;;;;35.15;19.08;;;16.80;52.00;;;;;;4981826;28;20031;-31
2023/03/18 11:37:38;;;;;;;17.45;10.60;;;16.80;52.40;;;;;;4979714;28;20067;-30
2023/03/18 11:40:12;;;;;;;14.18;6.90;;;16.50;52.40;;;;;;4979127;28;20111;-31
2023/03/18 11:42:42;;;;;;;20.30;16.15;;;16.40;54.20;;;;;;4993616;28;20026;-30
2023/03/18 11:45:31;;;;;;;7.95;5.47;;;16.70;55.10;;;;;;4978955;28;20050;-29
2023/03/18 11:47:57;;;;;;;5.15;2.30;;;16.60;49.70;;;;;;4980301;28;20464;-34
2023/03/18 11:50:25;;;;;;;4.40;2.72;;;16.50;51.40;;;;;;4976350;28;20042;-30
2023/03/18 11:52:59;;;;;;;4.22;2.40;;;16.50;52.30;;;;;;4981429;28;20023;-30
2023/03/18 11:55:43;;;;;;;4.05;2.72;;;16.50;53.00;;;;;;4983130;28;20423;-32
2023/03/18 11:58:19;;;;;;;24.02;15.70;;;16.50;52.00;;;;;;4980860;28;20034;-29
2023/03/18 12:01:06;;;;;;;7.03;3.40;;;16.60;53.50;;;;;;4980137;28;20031;-30
2023/03/18 12:03:44;;;;;;;8.13;5.10;;;16.70;57.60;;;;;;4981054;28;20026;-28
2023/03/18 12:06:21;;;;;;;5.47;2.95;;;16.80;56.10;;;;;;4984076;28;20078;-29
2023/03/18 12:08:53;;;;;;;11.77;2.65;;;16.80;55.40;;;;;;4992615;28;20505;-30
2023/03/18 12:11:25;;;;;;;5.22;3.38;;;17.00;53.80;;;;;;4985610;28;20037;-32
2023/03/18 12:14:09;;;;;;;5.38;2.47;;;16.90;52.20;;;;;;4986969;28;20049;-29
2023/03/18 12:16:47;;;;;;;5.03;2.42;;;17.00;54.00;;;;;;4985530;28;20551;-29
2023/03/18 12:19:16;;;;;;;4.88;2.22;;;17.10;52.40;;;;;;4989959;28;20023;-29
2023/03/18 12:22:05;;;;;;;7.55;3.22;;;17.00;53.00;;;;;;4990362;28;20023;-29
2023/03/18 12:25:07;;;;;;;6.18;2.53;;;17.00;54.60;;;;;;4987442;28;20501;-29
2023/03/18 12:27:54;;;;;;;5.38;2.95;;;16.90;51.80;;;;;;4979579;28;20034;-29
2023/03/18 12:30:57;;;;;;;4.70;2.78;;;16.80;52.80;;;;;;4979952;28;20395;-29
2023/03/18 12:33:49;;;;;;;3.92;2.42;;;16.80;52.70;;;;;;4985150;28;20047;-31
2023/03/18 12:36:34;;;;;;;5.00;2.42;;;16.70;50.90;;;;;;4980539;28;20035;-29
2023/03/18 12:39:18;;;;;;;4.95;2.78;;;17.00;57.10;;;;;;4988785;28;20402;-30
2023/03/18 12:42:01;;;;;;;5.18;2.20;;;17.00;55.00;;;;;;4984752;28;20054;-31
2023/03/18 12:44:35;;;;;;;3.65;2.28;;;17.00;54.20;;;;;;4985044;28;20026;-30
2023/03/18 12:47:21;;;;;;;7.40;2.53;;;17.00;54.00;;;;;;4981241;28;20030;-33
2023/03/18 12:50:04;;;;;;;6.97;2.40;;;17.20;56.20;;;;;;4985488;28;20038;-29
2023/03/18 12:52:43;;;;;;;5.22;2.22;;;17.30;58.30;;;;;;4987765;28;20074;-29
2023/03/18 12:55:21;;;;;;;3.63;2.42;;;17.50;57.00;;;;;;4982947;28;20034;-28
2023/03/18 12:57:53;;;;;;;5.05;2.90;;;17.20;52.60;;;;;;4994185;28;20038;-29
2023/03/18 13:00:36;;;;;;;4.40;2.03;;;17.10;50.60;;;;;;4977492;28;20035;-29
2023/03/18 13:03:26;;;;;;;6.78;2.70;;;17.10;54.60;;;;;;4972676;28;20393;-29
2023/03/18 13:05:57;;;;;;;6.03;2.35;;;17.20;53.20;;;;;;5001906;28;20488;-30